Time;durP1;ratioP1;P1;durP2;ratioP2;P2;SDS_P1;SDS_P2;PMS_P1;PMS_P2;Temp;Humidity;BMP_temperature;BMP_pressure;BME280_temperature;BME280_humidity;BME280_pressure;Samples;Min_cycle;Max_cycle;Signal;HPM_P1;HPM_P2
2024/03/13 00:00:17;;;;;;;30.90;19.37;;;7.40;82.10;;;6.68;82.84;97987.50;5064182;28;20549;-75
2024/03/13 00:02:45;;;;;;;30.80;19.00;;;7.30;82.00;;;6.63;83.24;97990.78;5051934;28;20451;-75
2024/03/13 00:05:13;;;;;;;27.23;18.03;;;7.30;82.20;;;6.67;82.58;97992.03;5053288;28;20464;-75
2024/03/13 00:07:41;;;;;;;29.50;19.60;;;7.30;82.10;;;6.60;83.12;97986.59;5058636;28;20444;-76
2024/03/13 00:10:11;;;;;;;30.70;18.70;;;7.30;82.10;;;6.60;83.38;97978.53;5081141;28;20479;-76
2024/03/13 00:12:38;;;;;;;29.97;18.67;;;7.30;82.30;;;6.59;83.59;97984.09;5059015;28;20473;-76
2024/03/13 00:15:08;;;;;;;28.33;19.50;;;7.30;82.30;;;6.49;84.05;97985.25;5055394;28;20490;-75
2024/03/13 00:17:36;;;;;;;31.90;18.23;;;7.30;82.30;;;6.37;84.43;97976.88;5050903;28;20453;-76
2024/03/13 00:20:04;;;;;;;31.83;19.37;;;7.20;82.50;;;6.41;84.06;97969.25;5052164;28;20479;-77
2024/03/13 00:22:34;;;;;;;31.17;18.57;;;7.20;82.60;;;6.48;84.68;97977.38;5058965;28;20494;-75
2024/03/13 00:25:02;;;;;;;31.10;19.07;;;7.20;82.80;;;6.60;83.45;97975.03;5047785;28;20444;-77
2024/03/13 00:27:31;;;;;;;29.70;18.70;;;7.30;82.70;;;6.63;83.60;97972.78;5030380;28;21019;-75
2024/03/13 00:29:59;;;;;;;29.47;16.87;;;7.30;82.60;;;6.62;84.00;97962.25;5054390;28;20452;-75
2024/03/13 00:32:28;;;;;;;29.20;18.30;;;7.30;82.60;;;6.18;84.86;97902.34;5050721;28;20626;-75
2024/03/13 00:34:55;;;;;;;34.13;19.03;;;7.30;82.90;;;6.33;85.13;97927.25;5056269;28;20687;-75
2024/03/13 00:37:23;;;;;;;30.10;17.73;;;7.30;83.20;;;6.54;85.95;97965.06;5052820;28;20585;-75
2024/03/13 00:39:50;;;;;;;29.80;19.33;;;7.30;83.60;;;6.60;86.98;97958.94;5057952;28;20453;-75
2024/03/13 00:42:18;;;;;;;30.13;18.80;;;7.30;84.30;;;6.51;87.81;97961.72;5049678;28;20447;-75
2024/03/13 00:44:46;;;;;;;27.40;18.07;;;7.20;84.40;;;6.43;88.23;97959.16;5052681;28;20459;-75
2024/03/13 00:47:14;;;;;;;26.80;17.10;;;7.20;85.10;;;6.44;89.78;97955.44;5057686;28;20455;-74
2024/03/13 00:49:42;;;;;;;29.47;18.70;;;7.20;86.00;;;6.36;90.97;97951.03;5055457;28;20443;-76
2024/03/13 00:52:09;;;;;;;33.20;19.03;;;7.20;86.80;;;6.37;91.38;97950.03;5052982;28;20459;-75
2024/03/13 00:54:44;;;;;;;30.73;19.90;;;7.20;87.50;;;5.98;91.93;97894.03;5054296;28;20963;-76
2024/03/13 00:57:12;;;;;;;32.57;18.70;;;7.10;88.10;;;6.40;92.88;97945.31;5060540;28;20477;-75
2024/03/13 00:59:40;;;;;;;29.40;18.20;;;7.10;89.60;;;6.35;93.69;97946.69;5051640;28;20460;-76
2024/03/13 01:02:09;;;;;;;32.67;17.57;;;7.10;90.00;;;6.24;93.79;97956.06;5077954;28;20452;-76
2024/03/13 01:04:37;;;;;;;29.73;18.30;;;7.00;90.20;;;6.08;94.90;97924.09;5052432;28;20473;-74
2024/03/13 01:07:06;;;;;;;28.53;17.67;;;7.00;90.80;;;6.20;94.60;97946.75;5059785;28;20952;-74
2024/03/13 01:09:35;;;;;;;33.07;17.10;;;7.00;91.00;;;6.02;94.86;97930.25;5054045;28;20542;-74
2024/03/13 01:12:05;;;;;;;30.90;18.93;;;6.90;91.00;;;6.14;95.22;97941.31;5055429;28;20451;-74
2024/03/13 01:14:32;;;;;;;24.87;15.70;;;6.90;91.20;;;6.00;95.32;97940.28;5057099;28;20546;-74
2024/03/13 01:17:02;;;;;;;31.80;17.43;;;6.90;91.30;;;5.99;95.83;97943.97;5057336;28;20572;-75
2024/03/13 01:19:33;;;;;;;30.27;17.10;;;6.80;91.50;;;6.17;95.84;97949.81;5057059;28;20947;-74
2024/03/13 01:22:04;;;;;;;28.03;17.47;;;6.90;92.00;;;6.18;95.87;97951.47;5051218;28;20444;-75
2024/03/13 01:24:33;;;;;;;29.87;18.40;;;6.90;91.80;;;6.21;95.90;97945.72;5055159;28;20455;-74
2024/03/13 01:27:00;;;;;;;25.63;17.00;;;6.90;92.10;;;6.26;95.98;97947.00;5058255;28;21160;-74
2024/03/13 01:29:27;;;;;;;29.83;17.07;;;6.90;92.30;;;6.16;95.92;97941.94;5046854;28;20948;-74
2024/03/13 01:31:57;;;;;;;32.50;18.07;;;6.90;92.20;;;6.12;96.22;97938.78;5057565;28;20826;-74
2024/03/13 01:34:25;;;;;;;28.70;16.60;;;6.90;92.20;;;6.20;95.92;97927.97;5060080;28;20469;-74
2024/03/13 01:39:39;;;;;;;28.50;17.43;;;7.00;92.40;;;5.97;96.33;97885.16;5058374;28;20545;-75
2024/03/13 01:56:30;;;;;;;28.60;17.23;;;6.90;93.00;;;6.15;98.06;97913.44;4993320;28;21229;-75
2024/03/13 01:59:09;;;;;;;31.87;18.40;;;6.90;93.10;;;6.22;98.20;97914.38;5039054;28;20453;-76
2024/03/13 02:04:21;;;;;;;26.97;18.10;;;6.90;93.80;;;6.11;97.75;97909.50;5053443;28;20456;-75
2024/03/13 02:06:50;;;;;;;35.10;18.93;;;6.90;93.50;;;5.61;98.94;97827.00;5056263;28;20461;-75
2024/03/13 02:09:22;;;;;;;26.23;17.07;;;6.80;93.60;;;6.11;98.17;97906.81;5053577;28;20455;-74
2024/03/13 02:11:50;;;;;;;28.70;18.40;;;6.80;93.60;;;6.09;98.27;97898.94;5053428;28;20834;-73
2024/03/13 02:14:17;;;;;;;28.77;17.60;;;6.80;93.60;;;6.04;98.53;97904.06;5047755;28;20464;-74
2024/03/13 02:16:52;;;;;;;26.30;16.37;;;6.80;93.60;;;6.09;98.32;97904.31;5056145;28;20482;-75
2024/03/13 02:19:20;;;;;;;29.50;17.07;;;6.80;93.40;;;6.17;97.89;97901.53;5054578;28;20494;-74
2024/03/13 02:21:47;;;;;;;30.50;17.90;;;6.90;93.50;;;6.24;97.52;97910.47;5082695;28;20589;-74
2024/03/13 02:24:16;;;;;;;26.60;16.30;;;6.90;93.40;;;6.17;97.80;97901.53;5055299;28;20485;-74
2024/03/13 02:26:45;;;;;;;30.00;17.40;;;6.90;93.10;;;5.93;97.55;97863.25;5043981;28;20459;-75
2024/03/13 02:29:13;;;;;;;29.00;17.27;;;6.90;92.90;;;6.15;97.29;97894.66;5033308;28;20442;-73
2024/03/13 02:31:41;;;;;;;28.37;18.07;;;6.90;93.20;;;6.19;97.41;97910.22;5012174;28;20447;-73
2024/03/13 02:34:09;;;;;;;29.33;18.17;;;6.90;93.10;;;6.21;97.81;97899.28;5026790;28;20523;-74
2024/03/13 02:36:37;;;;;;;33.83;19.60;;;6.90;93.50;;;6.26;97.44;97906.75;5012987;28;20473;-73
2024/03/13 02:39:04;;;;;;;30.20;18.40;;;6.90;93.30;;;6.09;97.77;97893.56;5010695;28;20458;-74
2024/03/13 02:41:32;;;;;;;31.97;18.17;;;6.80;93.20;;;6.19;97.72;97896.78;5024744;28;20545;-73
2024/03/13 02:44:00;;;;;;;28.70;18.00;;;6.90;93.10;;;6.24;97.29;97901.59;5022355;28;21014;-74
2024/03/13 02:46:28;;;;;;;32.77;19.40;;;6.90;93.10;;;6.18;96.63;97900.50;5025982;28;20832;-74
2024/03/13 02:48:55;;;;;;;25.50;17.50;;;6.90;92.50;;;6.17;96.68;97888.09;5040789;28;20464;-75
2024/03/13 02:51:23;;;;;;;31.00;19.30;;;6.90;92.20;;;6.21;96.48;97886.69;5022436;28;20541;-74
2024/03/13 02:53:50;;;;;;;30.77;17.57;;;6.90;92.20;;;6.26;96.17;97888.81;5025674;28;20455;-74
2024/03/13 02:56:17;;;;;;;31.27;18.20;;;6.90;92.40;;;6.21;95.13;97886.69;5029846;28;20541;-75
2024/03/13 02:58:46;;;;;;;30.70;18.27;;;7.00;92.00;;;6.28;95.69;97884.09;5010492;28;20449;-74
2024/03/13 03:01:14;;;;;;;29.03;18.50;;;7.00;92.10;;;6.24;96.05;97875.56;5029114;28;20446;-75
2024/03/13 03:03:41;;;;;;;28.17;16.60;;;7.00;92.10;;;6.27;95.25;97892.31;5006574;28;20869;-75
2024/03/13 03:06:09;;;;;;;29.27;17.33;;;7.00;91.60;;;6.22;94.74;97891.03;5031952;28;20453;-75
2024/03/13 03:08:40;;;;;;;26.00;16.10;;;6.90;91.60;;;6.27;95.06;97889.63;5043303;28;20545;-74
2024/03/13 03:11:08;;;;;;;30.03;17.97;;;7.00;91.60;;;6.15;95.86;97887.47;5030296;28;20950;-74
2024/03/13 03:13:35;;;;;;;29.07;16.90;;;6.90;91.80;;;6.10;95.06;97881.81;5027385;28;20480;-75
2024/03/13 03:16:02;;;;;;;32.10;19.10;;;6.90;91.60;;;6.19;95.32;97888.75;5010326;28;20863;-75
2024/03/13 03:18:30;;;;;;;27.20;16.97;;;7.00;91.60;;;6.18;95.39;97889.75;5023515;28;20454;-75
2024/03/13 03:20:58;;;;;;;29.10;17.30;;;6.90;91.70;;;6.31;95.03;97885.56;5008184;28;20973;-75
2024/03/13 03:23:26;;;;;;;31.00;17.37;;;6.90;92.00;;;6.22;95.11;97893.72;5027113;28;20570;-75
2024/03/13 03:25:53;;;;;;;30.60;17.83;;;6.90;91.80;;;6.11;95.27;97891.53;5042295;28;20454;-75
2024/03/13 03:28:21;;;;;;;34.43;17.90;;;6.90;91.70;;;6.24;95.54;97883.63;5018305;28;20935;-76
2024/03/13 03:30:51;;;;;;;29.20;17.33;;;6.90;91.90;;;6.23;95.00;97868.56;5025100;28;20535;-76
2024/03/13 03:33:18;;;;;;;28.03;17.10;;;7.00;91.90;;;6.30;95.70;97889.28;5028505;28;20523;-75
2024/03/13 03:35:46;;;;;;;27.97;17.03;;;7.00;91.90;;;6.26;95.21;97886.13;5038680;28;20458;-76
2024/03/13 03:38:13;;;;;;;25.80;17.13;;;7.00;91.80;;;6.22;94.94;97882.19;5040727;28;20479;-75
2024/03/13 03:40:41;;;;;;;27.80;17.80;;;7.00;91.60;;;6.28;95.64;97885.91;5042542;28;20449;-74
2024/03/13 03:43:10;;;;;;;29.07;17.83;;;7.00;91.90;;;6.08;95.11;97892.75;5022005;28;20459;-74
2024/03/13 03:45:38;;;;;;;29.20;17.57;;;6.90;91.30;;;6.08;95.84;97882.03;5015675;28;20448;-75
2024/03/13 03:48:08;;;;;;;26.27;16.07;;;6.90;91.80;;;6.21;95.68;97881.34;5025145;28;20452;-75
2024/03/13 03:50:35;;;;;;;29.73;18.27;;;6.90;92.40;;;6.21;95.61;97891.22;5036215;28;20966;-76
2024/03/13 03:53:02;;;;;;;26.50;16.43;;;6.90;92.00;;;6.08;95.80;97876.66;5020084;28;20460;-75
2024/03/13 03:55:30;;;;;;;30.20;18.33;;;6.90;92.00;;;5.98;97.07;97894.03;5029127;28;20466;-75
2024/03/13 03:57:56;;;;;;;31.77;18.13;;;6.80;92.00;;;6.06;97.05;97886.72;5006165;28;20589;-74
2024/03/13 04:00:24;;;;;;;28.33;16.90;;;6.80;92.60;;;6.01;97.18;97891.00;5020294;28;20458;-75
2024/03/13 04:02:51;;;;;;;28.90;17.73;;;6.70;92.70;;;5.99;96.98;97882.28;5037297;28;20461;-75
2024/03/13 04:05:19;;;;;;;25.80;17.60;;;6.70;92.60;;;5.96;97.71;97878.97;5037695;28;21054;-75
2024/03/13 04:07:48;;;;;;;29.53;17.80;;;6.70;92.80;;;5.83;97.59;97881.50;5036024;28;20901;-75
2024/03/13 04:10:16;;;;;;;28.43;17.13;;;6.70;92.80;;;5.79;98.31;97885.56;5021752;28;20452;-76
2024/03/13 04:12:45;;;;;;;29.20;18.37;;;6.70;92.90;;;5.84;97.91;97891.22;5020095;28;20452;-74
2024/03/13 04:15:12;;;;;;;33.47;18.90;;;6.60;93.00;;;5.73;98.09;97872.94;5028354;28;20456;-74
2024/03/13 04:17:40;;;;;;;31.17;18.67;;;6.60;93.10;;;5.73;98.54;97883.66;5019302;28;20839;-75
2024/03/13 04:20:12;;;;;;;31.57;18.73;;;6.60;92.90;;;5.64;98.44;97870.34;5021037;28;20537;-75
2024/03/13 04:22:42;;;;;;;33.20;20.03;;;6.50;93.10;;;5.59;99.57;97872.75;5019647;28;20501;-75
2024/03/13 04:25:10;;;;;;;32.70;17.77;;;6.40;93.70;;;5.65;100.00;97874.69;5036485;28;20464;-75
2024/03/13 04:27:38;;;;;;;28.17;17.17;;;6.50;94.30;;;5.65;99.96;97880.03;5034094;28;20449;-76
2024/03/13 04:30:06;;;;;;;30.53;19.03;;;6.40;94.40;;;5.59;100.00;97883.47;5028568;28;20490;-76
2024/03/13 04:32:35;;;;;;;32.43;18.03;;;6.30;94.50;;;5.51;100.00;97872.84;5035767;28;20454;-77
2024/03/13 04:35:03;;;;;;;28.80;17.17;;;6.30;94.90;;;5.20;100.00;97849.78;5022388;28;20536;-78
2024/03/13 04:37:32;;;;;;;31.23;17.33;;;6.20;94.80;;;5.36;100.00;97884.41;5014115;28;20476;-76
2024/03/13 04:39:59;;;;;;;28.40;18.43;;;6.10;94.80;;;5.14;100.00;97859.38;5032831;28;20456;-75
2024/03/13 04:42:27;;;;;;;30.23;17.10;;;6.00;95.30;;;5.15;100.00;97887.00;5013100;28;20517;-76
2024/03/13 04:44:55;;;;;;;26.83;16.93;;;5.90;95.60;;;5.08;100.00;97892.25;5029221;28;21037;-76
2024/03/13 04:47:23;;;;;;;30.87;18.03;;;5.80;96.10;;;4.96;100.00;97889.22;5019477;28;21036;-77
2024/03/13 04:49:50;;;;;;;30.00;17.43;;;5.70;97.20;;;5.01;100.00;97894.84;5009886;28;20458;-76
2024/03/13 04:52:18;;;;;;;30.60;18.10;;;5.80;97.60;;;4.88;100.00;97887.44;5021489;28;20467;-78
2024/03/13 04:54:45;;;;;;;30.20;17.53;;;5.70;97.40;;;4.92;100.00;97890.56;5023999;28;20459;-75
2024/03/13 04:57:13;;;;;;;31.60;18.17;;;5.60;97.70;;;4.85;100.00;97892.31;5040599;28;20483;-77
2024/03/13 04:59:41;;;;;;;32.17;18.13;;;5.60;98.10;;;4.91;100.00;97896.94;5022464;28;20471;-77
2024/03/13 05:02:08;;;;;;;29.60;17.47;;;5.60;98.40;;;4.89;100.00;97904.31;5036409;28;21048;-76
2024/03/13 05:04:36;;;;;;;27.70;18.10;;;5.60;98.60;;;4.92;100.00;97907.47;5034544;28;20963;-75
2024/03/13 05:07:03;;;;;;;30.97;18.30;;;5.60;98.80;;;4.78;100.00;97890.38;5019594;28;20446;-76
2024/03/13 05:09:31;;;;;;;33.57;17.83;;;5.50;99.00;;;4.70;100.00;97870.84;5008814;28;20514;-76
2024/03/13 05:11:58;;;;;;;39.07;19.67;;;5.50;99.90;;;4.86;100.00;97896.66;5026067;28;20461;-76
2024/03/13 05:14:26;;;;;;;30.87;17.47;;;5.50;99.90;;;4.95;100.00;97903.59;5021618;28;20457;-76
2024/03/13 05:16:53;;;;;;;32.57;19.20;;;5.60;99.90;;;5.15;100.00;97903.06;5025640;28;20510;-76
2024/03/13 05:19:20;;;;;;;34.67;18.87;;;5.70;99.90;;;5.26;100.00;97905.31;5009255;28;20827;-77
2024/03/13 05:21:48;;;;;;;35.60;19.50;;;5.80;99.90;;;5.38;100.00;97908.34;5039137;28;20863;-75
2024/03/13 05:24:15;;;;;;;29.00;17.20;;;6.00;99.90;;;5.30;100.00;97903.91;5027595;28;20896;-74
2024/03/13 05:26:43;;;;;;;29.33;17.37;;;5.90;99.90;;;5.38;100.00;97903.00;5019631;28;21133;-74
2024/03/13 05:29:10;;;;;;;27.43;17.80;;;6.00;99.90;;;5.41;100.00;97907.97;5035207;28;20544;-73
2024/03/13 05:31:38;;;;;;;28.20;18.70;;;6.10;99.90;;;5.58;100.00;97908.63;5028473;28;20581;-76
2024/03/13 05:34:05;;;;;;;32.60;18.87;;;6.20;99.40;;;5.49;100.00;97890.97;5023428;28;20508;-75
2024/03/13 05:36:33;;;;;;;30.60;18.63;;;6.20;98.40;;;5.67;100.00;97920.91;5026993;28;20487;-75
2024/03/13 05:39:00;;;;;;;29.10;18.20;;;6.30;97.70;;;5.81;100.00;97921.06;5010525;28;20906;-74
2024/03/13 05:41:28;;;;;;;33.00;18.10;;;6.40;96.00;;;5.88;100.00;97923.84;5033749;28;20475;-73
2024/03/13 05:43:55;;;;;;;28.50;18.00;;;6.50;95.40;;;5.98;99.62;97931.56;5043251;28;20853;-74
2024/03/13 05:46:23;;;;;;;30.67;16.70;;;6.60;95.10;;;6.01;99.44;97928.53;5025516;28;20453;-73
2024/03/13 05:48:50;;;;;;;28.97;17.20;;;6.60;94.30;;;5.92;98.91;97930.50;5010220;28;20458;-74
2024/03/13 05:51:18;;;;;;;26.80;17.60;;;6.60;93.90;;;6.02;98.42;97936.41;5021301;28;20469;-70
2024/03/13 05:53:45;;;;;;;26.90;17.70;;;6.70;93.90;;;5.98;98.92;97936.94;5020241;28;20446;-72
2024/03/13 05:56:14;;;;;;;25.97;17.37;;;6.70;93.60;;;6.26;96.79;97936.25;5023368;28;20898;-70
2024/03/13 05:58:42;;;;;;;27.80;16.50;;;6.80;93.30;;;6.45;95.66;97937.50;5007978;28;20529;-71
2024/03/13 06:01:14;;;;;;;29.60;16.90;;;6.90;92.90;;;6.50;95.59;97941.28;5016532;28;20829;-70
2024/03/13 06:03:42;;;;;;;30.13;18.30;;;7.00;92.60;;;6.41;95.46;97939.72;5026611;28;20462;-70
2024/03/13 06:06:11;;;;;;;27.97;17.43;;;7.00;92.20;;;6.41;95.51;97950.47;5038018;28;20454;-69
2024/03/13 06:08:43;;;;;;;26.50;16.97;;;7.00;92.40;;;6.31;95.24;97950.78;5026180;28;21030;-71
2024/03/13 06:11:10;;;;;;;29.23;16.57;;;7.00;91.90;;;6.32;95.70;97952.44;5008718;28;20544;-70
2024/03/13 06:13:38;;;;;;;31.57;19.00;;;7.00;91.90;;;6.34;95.75;97947.72;5025697;28;20466;-69
2024/03/13 06:16:09;;;;;;;26.53;16.80;;;7.00;92.10;;;6.49;95.44;97962.94;5041889;28;20466;-70
2024/03/13 06:18:37;;;;;;;28.10;17.90;;;7.00;92.20;;;6.61;95.09;97957.91;5029316;28;21151;-70
2024/03/13 06:21:07;;;;;;;28.20;19.53;;;7.10;92.00;;;6.73;93.90;97955.53;5044326;28;20495;-70
2024/03/13 06:23:38;;;;;;;26.03;19.07;;;7.20;92.10;;;6.72;93.05;97952.00;5025245;28;20981;-70
2024/03/13 06:26:07;;;;;;;27.70;18.63;;;7.30;91.20;;;6.61;93.75;97956.03;5046813;28;20446;-69
2024/03/13 06:31:23;;;;;;;24.90;17.90;;;7.30;91.40;;;6.70;93.44;97958.63;5063814;28;20451;-78
2024/03/13 06:33:52;;;;;;;24.80;17.17;;;7.40;91.20;;;6.44;94.31;97951.94;5013628;28;20454;-68
2024/03/13 06:36:20;;;;;;;26.83;17.60;;;7.20;90.80;;;6.41;94.69;97953.16;5040835;28;20455;-76
2024/03/13 06:38:48;;;;;;;27.27;17.50;;;7.20;91.30;;;6.63;94.66;97956.69;5042550;28;20476;-71
2024/03/13 06:41:15;;;;;;;26.07;17.47;;;7.20;91.60;;;6.66;93.64;97961.66;5008546;28;20483;-72
2024/03/13 06:43:43;;;;;;;27.03;19.57;;;7.30;91.30;;;6.63;93.61;97956.69;5025994;28;20465;-72
2024/03/13 06:46:10;;;;;;;28.93;18.30;;;7.30;91.00;;;6.86;92.55;97960.19;5010161;28;20490;-75
2024/03/13 06:48:38;;;;;;;25.93;16.77;;;7.40;91.00;;;6.73;92.46;97964.41;5029310;28;21081;-76
2024/03/13 06:51:08;;;;;;;25.70;17.27;;;7.40;90.60;;;6.49;93.52;97963.78;5029706;28;20446;-69
2024/03/13 06:53:35;;;;;;;24.70;16.73;;;7.30;90.40;;;6.64;93.08;97961.03;5026460;28;20440;-69
2024/03/13 06:56:06;;;;;;;26.77;17.20;;;7.40;90.80;;;6.60;92.28;97964.31;5010634;28;20453;-85
2024/03/13 06:58:37;;;;;;;23.93;17.20;;;7.40;90.20;;;7.04;91.32;97963.25;5027348;28;20550;-69
2024/03/13 07:01:14;;;;;;;20.97;15.13;;;7.50;90.50;;;6.95;90.40;97969.78;5045872;28;20495;-69
2024/03/13 07:03:44;;;;;;;23.77;15.20;;;7.60;90.00;;;6.93;90.70;97974.53;4989065;28;20966;-71
2024/03/13 07:06:12;;;;;;;20.70;15.93;;;7.60;89.70;;;6.99;90.29;97976.44;5034060;28;20955;-71
2024/03/13 07:08:41;;;;;;;24.30;16.03;;;7.60;89.60;;;6.90;91.25;97975.75;5047462;28;20453;-69
2024/03/13 07:11:09;;;;;;;27.07;16.77;;;7.50;89.90;;;6.56;91.73;97973.75;5014542;28;20572;-68
2024/03/13 07:13:37;;;;;;;24.50;15.97;;;7.50;89.40;;;6.74;92.16;97971.44;5023038;28;20447;-68
2024/03/13 07:16:05;;;;;;;24.80;16.10;;;7.40;89.80;;;7.05;90.29;97983.72;5010156;28;21161;-69
2024/03/13 07:18:33;;;;;;;28.40;16.30;;;7.60;89.80;;;7.28;88.55;97982.66;5029918;28;20497;-69
2024/03/13 07:21:02;;;;;;;24.80;15.73;;;7.80;89.20;;;7.18;89.25;97998.28;5036837;28;20459;-69
2024/03/13 07:23:31;;;;;;;22.60;16.50;;;7.80;89.10;;;7.22;88.40;97989.63;5018004;28;20462;-68
2024/03/13 07:26:00;;;;;;;20.80;14.63;;;7.90;88.50;;;7.32;88.42;97989.31;5028717;28;20454;-70
2024/03/13 07:28:32;;;;;;;25.50;15.70;;;8.00;88.40;;;7.12;89.53;97999.06;5023600;28;20487;-69
2024/03/13 07:31:00;;;;;;;22.17;15.63;;;7.90;88.20;;;7.17;89.75;97991.25;5014049;28;20449;-70
2024/03/13 07:33:28;;;;;;;26.83;15.63;;;7.90;88.50;;;7.40;88.99;97995.56;5023590;28;20478;-70
2024/03/13 07:35:58;;;;;;;23.63;15.40;;;7.90;88.70;;;7.30;87.54;97996.72;5023604;28;20461;-70
2024/03/13 07:38:28;;;;;;;19.67;12.77;;;8.00;87.60;;;7.06;88.20;97988.09;5026160;28;20478;-70
2024/03/13 07:40:56;;;;;;;22.93;15.83;;;7.90;87.20;;;7.28;88.05;97981.81;5024543;28;20524;-70
2024/03/13 07:43:24;;;;;;;19.40;15.17;;;8.00;87.50;;;7.59;86.42;97983.31;5048663;28;20552;-71
2024/03/13 07:45:54;;;;;;;20.73;14.83;;;8.20;87.10;;;7.62;86.47;97985.59;5035983;28;20449;-71
2024/03/13 07:48:21;;;;;;;18.30;13.13;;;8.20;87.10;;;7.63;85.86;97990.75;5019958;28;20455;-73
2024/03/13 07:50:48;;;;;;;18.57;13.90;;;8.30;86.50;;;7.86;84.71;97997.72;5016994;28;20487;-70
2024/03/13 07:53:21;;;;;;;16.83;12.43;;;8.40;86.30;;;7.98;83.16;97986.41;5020042;28;20452;-71
2024/03/13 07:55:48;;;;;;;19.63;13.40;;;8.60;85.60;;;7.83;84.16;97987.38;5041997;28;20458;-71
2024/03/13 07:58:16;;;;;;;19.27;13.37;;;8.50;85.30;;;7.65;84.08;97977.94;5036323;28;20492;-70
2024/03/13 08:00:43;;;;;;;20.07;11.70;;;8.60;85.00;;;8.12;82.78;97988.13;5033205;28;20946;-70
2024/03/13 08:03:11;;;;;;;20.23;13.63;;;8.60;85.40;;;8.64;80.81;97987.72;5039102;28;20467;-70
2024/03/13 08:05:38;;;;;;;25.10;15.97;;;9.00;84.80;;;8.78;78.80;97992.09;5008469;28;20497;-72
2024/03/13 08:08:07;;;;;;;19.70;12.67;;;9.20;84.00;;;8.22;80.38;97999.34;5041248;28;20456;-73
2024/03/13 08:10:35;;;;;;;18.13;12.30;;;9.10;83.30;;;8.26;81.16;97994.41;5007780;28;20553;-72
2024/03/13 08:13:02;;;;;;;18.43;11.50;;;8.90;83.80;;;8.71;78.63;97985.03;5057718;28;20455;-70
2024/03/13 08:15:30;;;;;;;20.43;12.27;;;9.20;83.50;;;8.79;78.70;97999.13;5034410;28;20452;-70
2024/03/13 08:17:58;;;;;;;14.20;9.77;;;9.30;83.20;;;8.65;78.63;97986.69;5021948;28;20453;-71
2024/03/13 08:20:26;;;;;;;15.70;10.20;;;9.30;82.80;;;9.05;77.27;97986.75;5047781;28;21240;-70
2024/03/13 08:22:54;;;;;;;11.00;8.63;;;9.50;82.50;;;9.05;75.94;97992.13;5024114;28;20458;-74
2024/03/13 08:25:21;;;;;;;10.63;8.63;;;9.70;81.70;;;9.03;75.68;97983.44;5009476;28;20467;-72
2024/03/13 08:27:52;;;;;;;10.90;8.30;;;9.70;81.10;;;9.05;75.40;97989.44;5023064;28;20456;-80
2024/03/13 08:30:20;;;;;;;9.30;7.63;;;9.80;80.80;;;8.95;73.93;97985.47;5039116;28;20487;-75
2024/03/13 08:32:48;;;;;;;9.13;6.13;;;9.70;80.00;;;9.26;72.53;97997.53;5019238;28;20455;-76
2024/03/13 08:35:16;;;;;;;7.97;5.50;;;9.80;79.70;;;9.04;71.83;97998.56;5026878;28;20513;-76
2024/03/13 08:37:43;;;;;;;6.03;4.93;;;9.80;78.40;;;9.05;71.03;97997.53;5049956;28;20462;-76
2024/03/13 08:40:13;;;;;;;9.00;6.03;;;9.80;78.00;;;9.45;70.03;98009.34;5029364;28;20495;-73
2024/03/13 08:42:41;;;;;;;6.30;5.60;;;9.90;78.10;;;9.35;70.03;98002.50;5026244;28;21182;-75
2024/03/13 08:45:10;;;;;;;5.80;3.70;;;9.90;77.60;;;9.17;67.68;98008.50;5026408;28;20823;-75
2024/03/13 08:47:38;;;;;;;6.80;5.60;;;9.80;76.10;;;8.71;71.17;98001.19;5025163;28;20459;-75
2024/03/13 08:50:06;;;;;;;6.67;6.00;;;9.50;77.20;;;8.54;72.80;98004.25;5020248;28;20565;-76
2024/03/13 08:52:34;;;;;;;5.67;3.97;;;9.30;77.60;;;8.49;70.57;98014.75;5004912;28;20467;-75
2024/03/13 08:55:02;;;;;;;3.57;3.27;;;9.20;76.60;;;8.46;70.45;98021.41;5019556;28;20454;-76
2024/03/13 08:57:30;;;;;;;6.90;5.10;;;9.10;76.70;;;8.26;71.44;98015.09;5005230;28;20451;-76
2024/03/13 08:59:58;;;;;;;6.90;5.27;;;9.10;77.10;;;8.37;72.56;98025.28;5038930;28;20522;-75
2024/03/13 09:02:26;;;;;;;6.83;4.97;;;9.00;77.50;;;8.58;73.00;98026.25;5039371;28;20949;-76
2024/03/13 09:04:54;;;;;;;8.87;6.20;;;9.10;78.00;;;8.48;72.08;98003.19;5051682;28;20471;-76
2024/03/13 09:07:22;;;;;;;5.10;3.90;;;9.30;77.90;;;8.11;71.93;98032.19;5018568;28;20456;-75
2024/03/13 09:09:50;;;;;;;5.30;3.90;;;9.10;77.00;;;8.20;71.28;98028.31;5036810;28;23526;-75
2024/03/13 09:12:18;;;;;;;5.10;4.00;;;9.00;76.90;;;8.29;71.64;98047.81;5048348;28;20494;-75
2024/03/13 09:14:45;;;;;;;3.80;3.10;;;8.90;77.00;;;8.44;71.06;98041.47;5035262;28;20820;-76
2024/03/13 09:17:13;;;;;;;3.63;3.33;;;9.00;77.00;;;8.52;70.85;98051.25;5036158;28;20549;-75
2024/03/13 09:19:41;;;;;;;3.60;2.93;;;9.20;76.80;;;8.19;71.37;98048.19;5025474;28;20480;-75
2024/03/13 09:22:11;;;;;;;4.00;3.50;;;9.00;76.60;;;8.36;70.99;98048.69;5052271;28;20961;-79
2024/03/13 09:24:39;;;;;;;3.20;2.90;;;9.00;76.80;;;8.77;70.56;98048.84;5040331;28;20537;-75
2024/03/13 09:27:07;;;;;;;4.23;3.20;;;9.20;76.70;;;8.88;68.96;98044.75;5039295;28;20755;-75
2024/03/13 09:29:36;;;;;;;4.57;3.57;;;9.40;76.30;;;8.79;69.41;98060.25;5018407;28;20537;-75
2024/03/13 09:32:04;;;;;;;4.70;3.17;;;9.40;76.00;;;8.58;70.11;98066.63;5019659;28;20451;-78
2024/03/13 09:34:32;;;;;;;3.20;2.90;;;9.30;76.20;;;8.41;68.82;98040.00;5019134;28;20449;-74
2024/03/13 09:37:03;;;;;;;3.20;2.77;;;9.30;75.60;;;8.27;70.33;98068.72;5039646;28;20465;-74
2024/03/13 09:39:32;;;;;;;2.40;2.10;;;9.00;75.80;;;8.35;70.44;98073.13;5008843;28;20879;-76
2024/03/13 09:41:59;;;;;;;4.10;2.73;;;9.00;75.80;;;7.90;70.85;98015.13;5021614;28;20812;-77
2024/03/13 09:44:29;;;;;;;4.37;2.90;;;9.00;76.10;;;8.22;70.54;98081.97;5052290;28;20912;-75
2024/03/13 09:46:57;;;;;;;3.23;2.90;;;9.00;76.30;;;8.29;70.64;98072.06;5016754;28;20927;-76
2024/03/13 09:49:25;;;;;;;3.03;2.60;;;9.10;75.90;;;8.61;70.30;98071.63;5017347;28;20796;-76
2024/03/13 09:51:53;;;;;;;3.20;2.90;;;9.20;76.00;;;8.42;70.23;98068.63;5023087;28;20492;-76
2024/03/13 09:54:20;;;;;;;2.80;2.50;;;9.20;75.60;;;8.74;68.33;98068.13;5035638;28;20514;-76
2024/03/13 09:56:48;;;;;;;2.57;2.37;;;9.40;75.40;;;9.27;67.51;98059.31;5033369;28;20492;-76
2024/03/13 09:59:15;;;;;;;6.00;2.47;;;9.70;75.10;;;9.42;66.35;98061.00;5032369;28;20574;-75
2024/03/13 10:01:43;;;;;;;2.60;2.40;;;10.00;73.60;;;9.89;64.04;98074.47;5036713;28;20451;-75
2024/03/13 10:04:12;;;;;;;2.90;2.43;;;10.30;72.90;;;9.72;65.49;98071.38;5056546;28;21033;-74
2024/03/13 10:06:40;;;;;;;2.30;2.10;;;10.40;72.70;;;9.88;65.56;98070.13;5015164;28;20470;-75
2024/03/13 10:09:12;;;;;;;4.50;2.40;;;10.50;72.70;;;10.26;63.06;98076.69;5025535;28;20462;-75
2024/03/13 10:11:42;;;;;;;6.03;5.50;;;10.70;71.90;;;9.96;63.19;98056.38;5037994;28;20548;-77
2024/03/13 10:14:09;;;;;;;2.40;2.20;;;10.80;71.60;;;10.25;62.17;98064.22;5019415;28;20552;-74
2024/03/13 10:16:37;;;;;;;3.43;2.50;;;11.00;70.90;;;10.03;63.14;98057.22;5021870;28;20460;-74
2024/03/13 10:19:05;;;;;;;4.90;2.10;;;10.90;70.90;;;9.61;64.64;98068.25;5018612;28;20550;-74
2024/03/13 10:21:33;;;;;;;1.87;1.73;;;10.50;70.80;;;10.02;63.40;98079.00;5000721;28;20556;-75
2024/03/13 10:24:01;;;;;;;2.03;1.70;;;10.70;71.00;;;10.54;62.03;98072.84;5033464;28;20456;-76
2024/03/13 10:26:29;;;;;;;2.97;1.90;;;10.90;70.60;;;10.72;60.83;98077.56;5038428;28;20452;-76
2024/03/13 10:28:56;;;;;;;3.10;1.90;;;11.20;69.80;;;10.75;60.12;98069.03;5004131;28;20547;-76
2024/03/13 10:31:24;;;;;;;2.20;1.67;;;11.40;69.30;;;10.82;59.32;98077.94;5037213;28;20453;-75
2024/03/13 10:33:54;;;;;;;1.80;1.70;;;11.40;68.70;;;11.00;59.06;98077.25;5021451;28;20478;-75
2024/03/13 10:36:21;;;;;;;4.00;1.63;;;11.60;68.50;;;10.74;59.67;98079.03;5025036;28;20452;-77
2024/03/13 10:38:49;;;;;;;2.50;1.97;;;11.60;68.10;;;11.29;58.26;98061.44;5036213;28;20541;-74
2024/03/13 10:41:17;;;;;;;4.00;1.70;;;11.70;68.00;;;11.10;58.75;98071.34;5030484;28;21058;-76
2024/03/13 10:43:46;;;;;;;1.67;1.57;;;11.80;67.60;;;11.08;59.37;98072.59;5022365;28;21237;-76
2024/03/13 10:46:13;;;;;;;1.93;1.80;;;11.70;67.70;;;10.75;60.06;98077.97;5010014;28;20453;-74